Airfield :
LOGIN :

Register | Disclaimer

   EN    FR    IT 

 










Legend :    VFR   Marginal VFR   IFR   Intensive IFR   Very Intensive IFR
Visi :
Ceiling :
>= 8 km
>= 3000ft
5 to 8 km
1000 to 3000 ft
1500m to 5 km
500 to 1000 ft
800 to 1500m
200 to 500 ft
< 800m
< 200 ft
Symbols :   Thunderstorms  Fog  Heavy snow  Heavy precipitations  Wind > 20 kt
SIGMETs :     Misc.  Thunderstorms  Icing  Turbulence  Mountain Waves  Volcanic Ashes






- Airport Elevation : 1115 ft
- IATA code : GRZ


LOWG - Graz

CURRENT METAR :
  • 280620Z 17009KT 9999 -RA FEW003 BKN009 13/12 Q1016 TEMPO RA BKN012

EXPIRED METARs :
  • 280550Z 17006KT 9999 -RA FEW003 BKN009 13/12 Q1016 TEMPO SCT007 BKN030
  • 280520Z 18005KT 130V210 9999 BKN007 BKN030 13/12 Q1015 TEMPO SCT007 BKN030
  • 280450Z 18002KT 9999 FEW005 SCT008 BKN045 13/12 Q1015 TEMPO BKN008
  • 280420Z 18004KT 160V230 9999 FEW005 BKN008 BKN045 13/12 Q1015 TEMPO SCT008 BKN045
  • 280350Z 17007KT 9999 -RA SCT007 BKN045 13/12 Q1015 TEMPO BKN009

TAF AMD TAF LOWG
Valid from the 28 at 06:00 until the 29 at 06:00 UTC


280556Z 2806/2906 VRB05KT 9999 BKN030 TX18/2812Z TN11/2902Z
TEMPO 2806/2816 18008KT RA BKN007
PROB30
TEMPO 2822/2902 0700 BCFG



MET'MAP, your aeronautical weather chart ! - Copyright ORBIFLY December 2007 - Disclaimer

ORBIFLY MET'MAP TEAM :

Programming & Development : Alexandra Zaïnal
Original concept : Baudouin d'Aumeries
Technical & hardware support : Manuel Goepfert
Assistance : Marc-Olivier Méhu

Contact : metmap@orbifly.com




SOURCES & CREDITS :

   NOAA